Time;durP1;ratioP1;P1;durP2;ratioP2;P2;SDS_P1;SDS_P2;PMS_P1;PMS_P2;Temp;Humidity;BMP_temperature;BMP_pressure;BME280_temperature;BME280_humidity;BME280_pressure;Samples;Min_cycle;Max_cycle;Signal;HPM_P1;HPM_P2
2023/09/18 00:00:26;;;;;;;6.90;4.90;;;;;;;16.31;100.00;95523.97;1041639;28;20095;-74
2023/09/18 00:00:57;;;;;;;4.80;4.10;;;;;;;16.30;100.00;95524.25;1037677;28;20029;-73
2023/09/18 00:01:28;;;;;;;8.60;4.53;;;;;;;16.31;100.00;95517.91;1040624;28;20075;-72
2023/09/18 00:01:58;;;;;;;6.30;4.78;;;;;;;16.30;100.00;95526.91;1034003;28;20029;-72
2023/09/18 00:02:31;;;;;;;5.63;4.43;;;;;;;16.29;100.00;95520.06;1026571;28;20030;-74
2023/09/18 00:03:02;;;;;;;8.35;4.38;;;;;;;16.29;100.00;95520.06;1026254;28;20039;-72
2023/09/18 00:03:33;;;;;;;7.20;4.53;;;;;;;16.23;100.00;95514.91;1027961;28;20478;-73
2023/09/18 00:04:04;;;;;;;6.55;4.90;;;;;;;16.28;100.00;95519.28;1034398;28;20029;-73
2023/09/18 00:04:34;;;;;;;5.63;4.70;;;;;;;16.26;100.00;95522.25;1036578;28;20615;-73
2023/09/18 00:05:05;;;;;;;6.78;4.78;;;;;;;16.24;100.00;95519.09;1034496;28;20044;-73
2023/09/18 00:05:35;;;;;;;5.70;4.50;;;;;;;16.25;100.00;95512.72;1029347;28;20152;-72
2023/09/18 00:06:06;;;;;;;5.93;5.05;;;;;;;16.27;100.00;95523.81;1026283;28;20027;-73
2023/09/18 00:06:37;;;;;;;7.20;4.85;;;;;;;16.29;100.00;95530.66;1026085;28;20033;-71
2023/09/18 00:07:07;;;;;;;5.65;4.55;;;;;;;16.25;100.00;95523.31;1026706;28;20163;-74
2023/09/18 00:07:38;;;;;;;6.30;4.80;;;;;;;16.29;100.00;95526.13;1034691;28;20468;-73
2023/09/18 00:08:08;;;;;;;8.25;5.47;;;;;;;16.23;100.00;95517.56;1038326;28;20033;-74
2023/09/18 00:08:39;;;;;;;5.72;4.85;;;;;;;16.27;100.00;95526.44;1046696;28;20507;-73
2023/09/18 00:09:11;;;;;;;7.05;5.25;;;;;;;16.25;100.00;95525.97;1046925;28;20040;-74
2023/09/18 00:09:42;;;;;;;6.82;4.97;;;;;;;16.23;100.00;95522.84;1050625;28;20028;-73
2023/09/18 00:10:12;;;;;;;9.77;5.18;;;;;;;16.23;100.00;95530.00;1049980;28;20024;-73
2023/09/18 00:10:47;;;;;;;5.85;4.22;;;;;;;16.19;100.00;95521.88;1050417;28;20032;-73
2023/09/18 00:11:18;;;;;;;7.25;4.97;;;;;;;16.22;100.00;95531.84;1038449;28;20032;-72
2023/09/18 00:11:48;;;;;;;5.97;5.03;;;;;;;16.23;100.00;95536.09;1034324;28;20049;-74
2023/09/18 00:12:18;;;;;;;5.15;4.30;;;;;;;16.22;100.00;95526.56;1031940;28;20750;-73
2023/09/18 00:12:49;;;;;;;7.00;4.85;;;;;;;16.21;100.00;95527.66;1038770;28;20669;-73
2023/09/18 00:13:20;;;;;;;5.50;4.43;;;;;;;16.21;100.00;95530.31;1045026;28;20335;-73
2023/09/18 00:13:50;;;;;;;6.78;4.90;;;;;;;16.16;100.00;95517.22;1042740;28;20043;-75
2023/09/18 00:14:21;;;;;;;6.68;5.35;;;;;;;16.16;100.00;95517.22;1038216;28;20123;-73
2023/09/18 00:14:51;;;;;;;7.30;5.10;;;;;;;16.20;100.00;95528.75;1030355;28;20034;-73
2023/09/18 00:15:22;;;;;;;6.53;5.00;;;;;;;16.21;100.00;95525.00;1038400;28;20370;-72
2023/09/18 00:15:55;;;;;;;8.70;5.20;;;;;;;16.16;100.00;95517.22;1034598;28;20037;-73
2023/09/18 00:16:27;;;;;;;7.18;5.20;;;;;;;16.21;100.00;95525.00;1039306;28;20105;-74
2023/09/18 00:16:57;;;;;;;7.13;4.90;;;;;;;16.21;100.00;95519.72;1033679;28;20033;-71
2023/09/18 00:17:28;;;;;;;5.63;4.68;;;;;;;16.22;100.00;95521.28;1036619;28;20654;-73
2023/09/18 00:17:58;;;;;;;6.72;5.10;;;;;;;16.19;100.00;95515.81;1034580;28;20037;-75
2023/09/18 00:18:28;;;;;;;5.97;4.78;;;;;;;16.23;100.00;95517.56;1040888;28;20107;-73
2023/09/18 00:18:59;;;;;;;6.05;4.82;;;;;;;16.17;100.00;95510.81;1038392;28;20025;-73
2023/09/18 00:19:31;;;;;;;5.43;4.65;;;;;;;16.20;100.00;95515.50;1038432;28;20414;-74
2023/09/18 00:20:03;;;;;;;7.95;5.00;;;;;;;16.23;100.00;95517.56;1032392;28;20050;-74
2023/09/18 00:20:33;;;;;;;7.57;5.47;;;;;;;16.23;100.00;95516.75;1032730;28;20042;-72
2023/09/18 00:21:04;;;;;;;5.55;4.68;;;;;;;16.22;100.00;95518.63;1031055;28;20030;-74
2023/09/18 00:21:35;;;;;;;6.43;4.80;;;;;;;16.21;100.00;95514.41;1029689;28;20085;-75
2023/09/18 00:22:06;;;;;;;7.05;4.90;;;;;;;16.23;100.00;95519.41;1035147;28;20029;-73
2023/09/18 00:22:36;;;;;;;6.82;5.18;;;;;;;16.21;100.00;95509.13;1039377;28;20033;-74
2023/09/18 00:23:07;;;;;;;6.75;5.47;;;;;;;16.21;100.00;95509.13;1039675;28;20459;-73
2023/09/18 00:23:38;;;;;;;7.70;5.35;;;;;;;16.22;100.00;95513.31;1039124;28;20032;-74
2023/09/18 00:24:08;;;;;;;9.18;5.40;;;;;;;16.22;100.00;95510.69;1035324;28;20040;-74
2023/09/18 00:24:39;;;;;;;7.10;5.07;;;;;;;16.22;100.00;95507.25;1035069;28;20018;-73
2023/09/18 00:25:10;;;;;;;8.88;4.95;;;;;;;16.23;100.00;95516.75;1033774;28;20076;-73
2023/09/18 00:25:43;;;;;;;6.05;5.07;;;;;;;16.17;100.00;95502.88;1038607;28;20029;-74
2023/09/18 00:26:13;;;;;;;7.60;5.45;;;;;;;16.23;100.00;95512.25;1035777;28;20029;-73
2023/09/18 00:26:46;;;;;;;5.63;4.47;;;;;;;16.17;100.00;95507.41;1038855;28;20089;-73
2023/09/18 00:27:17;;;;;;;6.78;5.35;;;;;;;16.23;100.00;95512.25;1035146;28;20056;-72
2023/09/18 00:27:47;;;;;;;7.22;5.63;;;;;;;16.21;100.00;95498.53;1031658;28;20073;-73
2023/09/18 00:28:18;;;;;;;6.10;5.15;;;;;;;16.22;100.00;95504.59;1031398;28;20307;-73
2023/09/18 00:28:48;;;;;;;6.47;4.85;;;;;;;16.21;100.00;95503.84;1035857;28;20030;-73
2023/09/18 00:29:19;;;;;;;6.57;5.07;;;;;;;16.23;100.00;95496.38;1042892;28;20472;-73
2023/09/18 00:29:50;;;;;;;6.88;5.22;;;;;;;16.24;100.00;95505.88;1035355;28;20030;-73
2023/09/18 00:30:20;;;;;;;8.35;5.55;;;;;;;16.22;100.00;95494.78;1036107;28;20034;-73
2023/09/18 00:30:50;;;;;;;6.57;5.22;;;;;;;16.25;100.00;95504.78;1035305;28;20033;-74
2023/09/18 00:31:21;;;;;;;7.63;5.18;;;;;;;16.30;100.00;95508.38;1035205;28;20029;-73
2023/09/18 00:31:51;;;;;;;7.07;5.60;;;;;;;16.31;100.00;95504.66;1039283;28;20037;-73
2023/09/18 00:32:22;;;;;;;6.85;5.47;;;;;;;16.24;100.00;95497.94;1035140;28;20038;-73
2023/09/18 00:32:52;;;;;;;6.60;5.25;;;;;;;16.30;100.00;95514.47;1035088;28;20755;-74
2023/09/18 00:33:23;;;;;;;6.93;5.22;;;;;;;16.29;100.00;95510.25;1035014;28;20026;-74
2023/09/18 00:33:53;;;;;;;6.35;5.07;;;;;;;16.25;100.00;95498.72;1039353;28;20025;-73
2023/09/18 00:34:24;;;;;;;6.60;5.22;;;;;;;16.33;100.00;95513.88;1043416;28;20251;-73
2023/09/18 00:34:54;;;;;;;7.65;5.55;;;;;;;16.35;100.00;95513.56;1047385;28;20248;-72
2023/09/18 00:35:25;;;;;;;6.53;5.18;;;;;;;16.34;100.00;95506.72;1047164;28;20460;-74
2023/09/18 00:35:55;;;;;;;7.20;5.40;;;;;;;16.36;100.00;95507.16;1035173;28;20508;-72
2023/09/18 00:36:26;;;;;;;7.07;5.18;;;;;;;16.38;100.00;95507.66;1026991;28;20027;-73
2023/09/18 00:36:56;;;;;;;7.28;5.25;;;;;;;16.33;100.00;95499.81;1026917;28;20027;-73
2023/09/18 00:37:28;;;;;;;6.55;5.45;;;;;;;16.39;100.00;95504.69;1039146;28;20149;-74
2023/09/18 00:37:58;;;;;;;7.82;5.47;;;;;;;16.38;100.00;95502.34;1039158;28;20100;-73
2023/09/18 00:38:29;;;;;;;11.43;5.50;;;;;;;16.34;100.00;95496.13;1039280;28;20508;-75
2023/09/18 00:38:59;;;;;;;7.72;5.82;;;;;;;16.42;100.00;95511.25;1031091;28;20068;-74
2023/09/18 00:39:31;;;;;;;7.85;6.00;;;;;;;16.42;100.00;95505.94;1035157;28;20030;-73
2023/09/18 00:40:01;;;;;;;6.88;5.43;;;;;;;16.40;100.00;95508.91;1035080;28;20574;-73
2023/09/18 00:40:32;;;;;;;6.22;5.13;;;;;;;16.34;100.00;95496.88;1039586;28;20040;-73
2023/09/18 00:41:02;;;;;;;7.25;5.50;;;;;;;16.41;100.00;95501.75;1039186;28;20555;-74
2023/09/18 00:41:33;;;;;;;7.10;5.78;;;;;;;16.45;100.00;95502.69;1035045;28;20041;-74
2023/09/18 00:42:03;;;;;;;7.50;5.95;;;;;;;16.39;100.00;95501.25;1039040;28;20080;-73
2023/09/18 00:42:34;;;;;;;7.32;5.45;;;;;;;16.44;100.00;95507.22;1039115;28;20506;-74
2023/09/18 00:43:04;;;;;;;6.93;5.55;;;;;;;16.43;100.00;95504.84;1038942;28;20033;-74
2023/09/18 00:43:35;;;;;;;9.10;5.45;;;;;;;16.44;100.00;95501.13;1038240;28;20142;-73
2023/09/18 00:44:05;;;;;;;9.07;5.72;;;;;;;16.45;100.00;95506.13;1030904;28;20034;-73
2023/09/18 00:44:36;;;;;;;6.90;5.55;;;;;;;16.44;100.00;95507.22;1039014;28;20025;-73
2023/09/18 00:45:08;;;;;;;7.10;5.57;;;;;;;16.43;100.00;95505.66;1047539;28;20038;-74
2023/09/18 00:45:41;;;;;;;6.05;4.78;;;;;;;16.39;100.00;95495.97;1042771;28;20044;-73
2023/09/18 00:46:11;;;;;;;6.47;5.13;;;;;;;16.40;100.00;95500.19;1043279;28;20571;-73
2023/09/18 00:46:42;;;;;;;7.10;5.43;;;;;;;16.41;100.00;95499.09;1030670;28;20042;-73
2023/09/18 00:47:12;;;;;;;10.30;5.28;;;;;;;16.40;100.00;95498.31;1035063;28;20513;-73
2023/09/18 00:47:43;;;;;;;7.30;5.40;;;;;;;16.35;100.00;95493.16;1034866;28;20022;-73
2023/09/18 00:48:16;;;;;;;7.22;5.95;;;;;;;16.39;100.00;95496.75;1031188;28;20477;-73
2023/09/18 00:48:46;;;;;;;7.00;5.57;;;;;;;16.38;100.00;95502.34;1035105;28;20038;-72
2023/09/18 00:49:17;;;;;;;8.20;5.88;;;;;;;16.32;100.00;95491.09;1035225;28;20029;-74
2023/09/18 00:49:48;;;;;;;7.47;5.47;;;;;;;16.35;100.00;95495.00;1030874;28;20073;-73
2023/09/18 00:50:19;;;;;;;7.78;5.72;;;;;;;16.32;100.00;95490.31;1030545;28;20038;-73
2023/09/18 00:50:49;;;;;;;7.93;6.20;;;;;;;16.38;100.00;95502.34;1035177;28;20018;-73
2023/09/18 00:51:20;;;;;;;7.10;5.68;;;;;;;16.38;100.00;95497.84;1030917;28;20522;-73
2023/09/18 00:51:51;;;;;;;6.82;5.45;;;;;;;16.37;100.00;95501.56;1034887;28;20025;-73
2023/09/18 00:52:21;;;;;;;6.60;5.90;;;;;;;16.37;100.00;95498.16;1035225;28;20025;-73
2023/09/18 00:52:52;;;;;;;8.02;6.00;;;;;;;16.29;100.00;95486.41;1035011;28;20030;-73
2023/09/18 00:53:23;;;;;;;7.03;5.50;;;;;;;16.33;100.00;95494.53;1034982;28;20524;-73
2023/09/18 00:53:54;;;;;;;7.45;5.78;;;;;;;16.36;100.00;95493.94;1038973;28;20029;-72
2023/09/18 00:54:25;;;;;;;6.85;5.60;;;;;;;16.30;100.00;95489.84;1030960;28;20018;-73
2023/09/18 00:54:56;;;;;;;6.68;5.30;;;;;;;16.26;100.00;95481.72;1031019;28;20164;-73
2023/09/18 00:55:27;;;;;;;8.77;5.85;;;;;;;16.31;100.00;95491.44;1039117;28;20022;-73
2023/09/18 00:55:58;;;;;;;7.03;5.80;;;;;;;16.29;100.00;95483.00;1034871;28;20513;-73
2023/09/18 00:56:28;;;;;;;9.07;6.15;;;;;;;16.30;100.00;95487.19;1039126;28;20064;-73
2023/09/18 00:56:59;;;;;;;7.13;5.47;;;;;;;16.33;100.00;95491.88;1039210;28;20386;-75
2023/09/18 00:57:29;;;;;;;6.32;5.53;;;;;;;16.32;100.00;95492.97;1036776;28;20045;-73
2023/09/18 00:58:00;;;;;;;7.35;5.40;;;;;;;16.30;100.00;95493.28;1034907;28;20021;-75
2023/09/18 00:58:30;;;;;;;6.88;5.50;;;;;;;16.29;100.00;95493.59;1037135;28;20036;-73
2023/09/18 00:59:02;;;;;;;8.27;5.63;;;;;;;16.28;100.00;95490.16;1039149;28;20033;-73
2023/09/18 00:59:33;;;;;;;7.22;5.15;;;;;;;16.26;100.00;95490.47;1039023;28;20033;-74
2023/09/18 01:00:07;;;;;;;8.13;5.80;;;;;;;16.20;100.00;95485.63;1034352;28;20041;-73
2023/09/18 01:00:38;;;;;;;7.57;5.63;;;;;;;16.21;100.00;95487.94;1030875;28;20014;-73
2023/09/18 01:01:09;;;;;;;6.20;5.38;;;;;;;16.17;100.00;95476.41;1034252;28;20501;-75
2023/09/18 01:01:40;;;;;;;7.93;5.63;;;;;;;16.21;100.00;95487.94;1034177;28;20062;-73
2023/09/18 01:02:11;;;;;;;8.07;6.07;;;;;;;16.19;100.00;95484.03;1026821;28;20026;-73
2023/09/18 01:02:42;;;;;;;6.32;5.50;;;;;;;16.20;100.00;95483.75;1034913;28;20080;-73
2023/09/18 01:03:12;;;;;;;9.57;5.80;;;;;;;16.16;100.00;95485.44;1035022;28;20756;-73
2023/09/18 01:03:43;;;;;;;6.57;5.47;;;;;;;16.20;100.00;95493.56;1039082;28;20037;-73
2023/09/18 01:04:15;;;;;;;6.97;5.53;;;;;;;16.19;100.00;95487.47;1034926;28;20057;-74
2023/09/18 01:04:45;;;;;;;8.07;5.82;;;;;;;16.12;100.00;95487.13;1033427;28;20024;-74
2023/09/18 01:05:20;;;;;;;8.00;5.97;;;;;;;16.17;100.00;95486.22;1031263;28;20034;-74
2023/09/18 01:05:50;;;;;;;9.57;6.28;;;;;;;16.17;100.00;95494.16;1036710;28;20066;-74
2023/09/18 01:06:21;;;;;;;8.50;6.18;;;;;;;16.15;100.00;95493.69;1043536;28;20017;-73
2023/09/18 01:06:52;;;;;;;9.02;5.82;;;;;;;16.13;100.00;95487.88;1043312;28;20029;-74
2023/09/18 01:07:23;;;;;;;8.85;5.57;;;;;;;16.06;100.00;95482.25;1039073;28;20034;-74
2023/09/18 01:07:53;;;;;;;8.63;5.72;;;;;;;16.09;100.00;95487.72;1035204;28;20030;-74
2023/09/18 01:08:24;;;;;;;8.25;5.25;;;;;;;16.11;100.00;95493.50;1030930;28;20503;-73
2023/09/18 01:08:54;;;;;;;7.35;5.32;;;;;;;16.07;100.00;95484.63;1035268;28;20030;-73
2023/09/18 01:09:25;;;;;;;9.90;5.80;;;;;;;16.10;100.00;95491.94;1043270;28;20021;-73
2023/09/18 01:09:55;;;;;;;13.35;6.00;;;;;;;16.08;100.00;95488.81;1039135;28;20033;-75
2023/09/18 01:10:31;;;;;;;10.32;5.80;;;;;;;16.10;100.00;95499.13;1038518;28;20513;-73
2023/09/18 01:11:19;;;;;;;12.95;6.35;;;;;;;16.10;100.00;95491.94;1031033;28;20049;-73
2023/09/18 01:11:50;;;;;;;7.75;5.97;;;;;;;16.09;100.00;95495.66;1039003;28;20021;-73
2023/09/18 01:12:34;;;;;;;8.20;5.88;;;;;;;16.06;100.00;95504.19;1039424;28;20432;-73
2023/09/18 01:13:13;;;;;;;7.88;5.97;;;;;;;16.00;100.00;95481.63;1034680;28;20104;-73
2023/09/18 01:14:06;;;;;;;6.95;5.10;;;;;;;16.06;100.00;95495.47;1038964;28;20024;-73
2023/09/18 01:14:49;;;;;;;9.32;6.07;;;;;;;15.99;100.00;95485.31;1038921;28;20556;-73
2023/09/18 01:15:27;;;;;;;8.93;5.50;;;;;;;16.00;100.00;95497.50;1034259;28;20017;-73
2023/09/18 01:16:20;;;;;;;7.18;5.40;;;;;;;16.00;100.00;95497.50;1030094;28;20026;-73
2023/09/18 01:16:54;;;;;;;6.53;5.22;;;;;;;15.98;100.00;95495.13;1026728;28;20011;-73
2023/09/18 01:17:24;;;;;;;8.13;5.97;;;;;;;15.97;100.00;95492.81;1026801;28;20015;-74
2023/09/18 01:17:55;;;;;;;7.07;5.28;;;;;;;15.91;100.00;95494.00;1031124;28;20054;-74
2023/09/18 01:18:25;;;;;;;7.05;5.50;;;;;;;15.95;100.00;95492.31;1030601;28;20098;-73
2023/09/18 01:18:56;;;;;;;10.90;5.90;;;;;;;15.94;100.00;95498.69;1039006;28;20055;-73
2023/09/18 01:19:38;;;;;;;6.25;5.47;;;;;;;15.91;100.00;95500.06;1035025;28;20030;-73
2023/09/18 01:20:10;;;;;;;6.93;5.65;;;;;;;15.91;100.00;95488.72;1036161;28;20076;-73
2023/09/18 01:20:40;;;;;;;10.02;5.60;;;;;;;15.88;100.00;95489.31;1034096;28;20022;-73
2023/09/18 01:21:10;;;;;;;6.68;5.40;;;;;;;15.90;100.00;95487.16;1036850;28;20017;-73
2023/09/18 01:21:41;;;;;;;6.95;5.85;;;;;;;15.83;100.00;95476.19;1034718;28;20026;-73
2023/09/18 01:22:16;;;;;;;8.95;5.55;;;;;;;15.87;100.00;95485.13;1035367;28;20026;-74
2023/09/18 01:22:49;;;;;;;7.50;5.63;;;;;;;15.87;100.00;95482.47;1039028;28;20024;-73
2023/09/18 01:23:20;;;;;;;7.35;5.63;;;;;;;15.85;100.00;95476.69;1031193;28;20054;-75
2023/09/18 01:23:51;;;;;;;7.93;5.63;;;;;;;15.81;100.00;95470.44;1035157;28;20030;-74
2023/09/18 01:24:21;;;;;;;8.15;6.07;;;;;;;15.81;100.00;95473.09;1038951;28;20159;-74
2023/09/18 01:24:52;;;;;;;7.88;6.00;;;;;;;15.85;100.00;95474.03;1043172;28;20439;-74
2023/09/18 01:25:22;;;;;;;8.32;6.43;;;;;;;15.83;100.00;95477.00;1034065;28;20021;-73
2023/09/18 01:25:53;;;;;;;8.20;5.93;;;;;;;15.82;100.00;95474.66;1035130;28;20048;-73
2023/09/18 01:26:23;;;;;;;9.27;6.25;;;;;;;15.74;100.00;95463.72;1030824;28;20081;-74
2023/09/18 01:26:54;;;;;;;8.00;5.93;;;;;;;15.79;100.00;95474.19;1031174;28;20045;-74
2023/09/18 01:27:24;;;;;;;8.75;6.47;;;;;;;15.79;100.00;95476.81;1041906;28;20048;-74
2023/09/18 01:27:55;;;;;;;8.60;6.40;;;;;;;15.78;100.00;95474.47;1039067;28;20030;-73
2023/09/18 01:28:25;;;;;;;8.35;6.65;;;;;;;15.76;100.00;95471.34;1042487;28;20102;-73
2023/09/18 01:28:56;;;;;;;7.35;5.82;;;;;;;15.75;100.00;95470.56;1035035;28;20033;-75
2023/09/18 01:29:26;;;;;;;8.25;6.50;;;;;;;15.76;100.00;95472.13;1044401;28;20033;-73
2023/09/18 01:29:57;;;;;;;8.10;6.00;;;;;;;15.72;100.00;95467.72;1043004;28;20036;-73
2023/09/18 01:30:27;;;;;;;9.07;6.10;;;;;;;15.73;100.00;95464.81;1038335;28;20033;-73
2023/09/18 01:30:57;;;;;;;9.88;6.30;;;;;;;15.72;100.00;95459.78;1038940;28;20038;-73
2023/09/18 01:31:28;;;;;;;8.05;6.32;;;;;;;15.71;100.00;95468.81;1034935;28;20026;-74
2023/09/18 01:31:58;;;;;;;7.38;6.00;;;;;;;15.70;100.00;95475.22;1038882;28;20432;-74
2023/09/18 01:32:30;;;;;;;10.35;6.00;;;;;;;15.71;100.00;95466.19;1039091;28;20025;-73
2023/09/18 01:33:00;;;;;;;9.07;6.28;;;;;;;15.65;100.00;95464.69;1035074;28;20536;-73
2023/09/18 01:33:31;;;;;;;8.38;6.28;;;;;;;15.69;100.00;95471.78;1039090;28;20025;-73
2023/09/18 01:34:01;;;;;;;7.93;5.80;;;;;;;15.53;100.00;95447.53;1035033;28;20394;-73
2023/09/18 01:34:36;;;;;;;8.70;6.30;;;;;;;15.66;100.00;95469.75;1035861;28;20029;-73
2023/09/18 01:35:08;;;;;;;8.13;6.25;;;;;;;15.67;100.00;95473.94;1035084;28;20489;-73
2023/09/18 01:35:38;;;;;;;8.73;6.43;;;;;;;15.60;100.00;95464.84;1030579;28;20466;-74
2023/09/18 01:36:09;;;;;;;8.32;6.38;;;;;;;15.64;100.00;95471.09;1026934;28;20026;-74
2023/09/18 01:36:39;;;;;;;7.40;6.00;;;;;;;15.65;100.00;95476.06;1038923;28;20017;-73
2023/09/18 01:37:10;;;;;;;9.43;6.60;;;;;;;15.64;100.00;95479.03;1040061;28;20520;-73
2023/09/18 01:37:40;;;;;;;8.82;6.63;;;;;;;15.63;100.00;95470.31;1038727;28;20018;-73
2023/09/18 01:38:11;;;;;;;7.32;5.95;;;;;;;15.60;100.00;95476.19;1030920;28;20437;-73
2023/09/18 01:38:42;;;;;;;8.45;6.70;;;;;;;15.60;100.00;95476.19;1033923;28;20038;-74
2023/09/18 01:39:12;;;;;;;8.82;6.60;;;;;;;15.54;100.00;95469.47;1043271;28;20079;-74
2023/09/18 01:39:43;;;;;;;8.52;6.28;;;;;;;15.59;100.00;95471.97;1034675;28;20026;-73
2023/09/18 01:40:13;;;;;;;7.53;6.45;;;;;;;15.53;100.00;95462.63;1034388;28;20513;-73
2023/09/18 01:40:43;;;;;;;8.88;6.90;;;;;;;15.54;100.00;95472.09;1030366;28;20018;-75
2023/09/18 01:41:14;;;;;;;8.73;6.60;;;;;;;15.56;100.00;95472.59;1035015;28;20013;-75
2023/09/18 01:41:44;;;;;;;8.90;6.45;;;;;;;15.55;100.00;95465.72;1038838;28;20025;-73
2023/09/18 01:42:15;;;;;;;8.85;6.68;;;;;;;15.56;100.00;95464.66;1038839;28;20080;-75
2023/09/18 01:42:46;;;;;;;8.48;6.70;;;;;;;15.53;100.00;95471.31;1038947;28;20041;-73
2023/09/18 01:43:16;;;;;;;10.93;6.88;;;;;;;15.54;100.00;95472.09;1030995;28;20071;-74
2023/09/18 01:43:47;;;;;;;7.93;6.43;;;;;;;15.47;100.00;95459.28;1027632;28;20029;-74
2023/09/18 01:44:18;;;;;;;10.80;7.45;;;;;;;15.45;100.00;95455.38;1031032;28;20402;-73
2023/09/18 01:44:48;;;;;;;9.98;6.80;;;;;;;15.51;100.00;95462.91;1034942;28;20108;-74
2023/09/18 01:45:19;;;;;;;11.43;6.63;;;;;;;15.50;100.00;95468.50;1034862;28;20029;-72
2023/09/18 01:45:49;;;;;;;9.35;6.50;;;;;;;15.50;100.00;95460.56;1034719;28;20030;-73
2023/09/18 01:46:20;;;;;;;9.68;7.05;;;;;;;15.45;100.00;95455.38;1031212;28;20081;-74
2023/09/18 01:46:51;;;;;;;8.18;6.68;;;;;;;15.51;100.00;95464.75;1026856;28;20027;-74
2023/09/18 01:47:23;;;;;;;7.43;6.30;;;;;;;15.49;100.00;95466.91;1026655;28;20466;-73
2023/09/18 01:47:53;;;;;;;8.98;6.90;;;;;;;15.43;100.00;95460.97;1027115;28;20117;-72
2023/09/18 01:48:24;;;;;;;9.93;7.25;;;;;;;15.47;100.00;95469.09;1038870;28;20077;-74
2023/09/18 01:48:54;;;;;;;8.68;6.40;;;;;;;15.43;100.00;95460.97;1035637;28;20046;-73
2023/09/18 01:49:38;;;;;;;10.32;7.43;;;;;;;15.38;100.00;95444.44;1044010;28;20127;-74
2023/09/18 01:50:09;;;;;;;7.95;6.75;;;;;;;15.46;100.00;95460.38;1034219;28;20061;-72
2023/09/18 01:50:40;;;;;;;8.82;6.50;;;;;;;15.45;100.00;95468.59;1036617;28;20314;-73
2023/09/18 01:51:13;;;;;;;8.35;6.93;;;;;;;15.39;100.00;95451.28;1041029;28;20052;-74
2023/09/18 01:51:44;;;;;;;13.95;6.97;;;;;;;15.38;100.00;95455.78;1043027;28;20021;-74
2023/09/18 01:52:14;;;;;;;11.18;7.40;;;;;;;15.39;100.00;95453.94;1039388;28;20033;-74
2023/09/18 01:52:45;;;;;;;9.48;6.88;;;;;;;15.42;100.00;95461.28;1038926;28;20034;-74
2023/09/18 01:53:15;;;;;;;9.52;7.10;;;;;;;15.42;100.00;95469.19;1035073;28;20038;-74
2023/09/18 01:53:46;;;;;;;9.80;6.53;;;;;;;15.43;100.00;95465.50;1039124;28;20037;-74
2023/09/18 01:54:16;;;;;;;9.25;6.88;;;;;;;15.42;100.00;95472.63;1038536;28;20504;-72
2023/09/18 01:54:47;;;;;;;7.78;6.57;;;;;;;15.35;100.00;95458.25;1043139;28;20087;-74
2023/09/18 01:55:17;;;;;;;9.38;7.05;;;;;;;15.42;100.00;95475.25;1038750;28;20026;-72
2023/09/18 01:55:48;;;;;;;11.55;7.07;;;;;;;15.42;100.00;95471.84;1034894;28;20040;-75
2023/09/18 01:56:21;;;;;;;10.10;7.00;;;;;;;15.41;100.00;95465.00;1038653;28;20575;-72
2023/09/18 01:56:53;;;;;;;8.95;6.90;;;;;;;15.42;100.00;95469.19;1039052;28;20021;-73
2023/09/18 01:57:23;;;;;;;8.68;6.55;;;;;;;15.40;100.00;95472.16;1042911;28;20056;-74
2023/09/18 01:57:53;;;;;;;9.48;7.15;;;;;;;15.43;100.00;95473.44;1038983;28;20074;-73
2023/09/18 01:58:24;;;;;;;9.63;7.63;;;;;;;15.43;100.00;95470.78;1042713;28;20039;-74
2023/09/18 01:58:54;;;;;;;8.85;7.00;;;;;;;15.43;100.00;95470.78;1042911;28;20029;-73
2023/09/18 01:59:25;;;;;;;8.88;7.35;;;;;;;15.44;100.00;95472.34;1040043;28;20033;-72
2023/09/18 01:59:55;;;;;;;9.63;7.07;;;;;;;15.29;100.00;95441.72;1051283;28;20065;-73
2023/09/18 02:00:26;;;;;;;9.27;7.20;;;;;;;15.43;100.00;95462.84;1046526;28;20510;-74
2023/09/18 02:00:57;;;;;;;8.88;6.60;;;;;;;15.43;100.00;95468.13;1050596;28;20102;-73
2023/09/18 02:01:29;;;;;;;9.88;7.38;;;;;;;15.43;100.00;95468.13;1045015;28;20372;-73
2023/09/18 02:02:01;;;;;;;8.88;6.80;;;;;;;15.38;100.00;95465.59;1043059;28;20017;-73
2023/09/18 02:02:31;;;;;;;12.18;8.13;;;;;;;15.44;100.00;95467.06;1034856;28;20040;-73
2023/09/18 02:03:03;;;;;;;8.20;6.72;;;;;;;15.44;100.00;95469.69;1026666;28;20038;-73
2023/09/18 02:03:33;;;;;;;9.38;6.68;;;;;;;15.43;100.00;95468.91;1027225;28;20027;-73
2023/09/18 02:04:04;;;;;;;8.85;6.93;;;;;;;15.42;100.00;95472.63;1031688;28;20035;-73
2023/09/18 02:04:35;;;;;;;9.75;6.90;;;;;;;15.39;100.00;95464.50;1039087;28;20033;-73
2023/09/18 02:05:06;;;;;;;10.43;7.03;;;;;;;15.43;100.00;95473.44;1043078;28;20534;-73
2023/09/18 02:05:37;;;;;;;7.93;6.60;;;;;;;15.42;100.00;95467.34;1041508;28;20040;-74
2023/09/18 02:06:08;;;;;;;8.48;6.80;;;;;;;15.46;100.00;95468.31;1039366;28;20038;-74
2023/09/18 02:06:39;;;;;;;10.88;6.88;;;;;;;15.47;100.00;95469.09;1030410;28;20105;-74
2023/09/18 02:07:10;;;;;;;10.68;7.00;;;;;;;15.50;100.00;95464.00;1039381;28;20029;-75
2023/09/18 02:07:40;;;;;;;9.43;7.10;;;;;;;15.52;100.00;95463.69;1043279;28;20020;-73
2023/09/18 02:08:11;;;;;;;10.60;7.15;;;;;;;15.54;100.00;95464.94;1043512;28;20024;-72
2023/09/18 02:08:41;;;;;;;8.93;6.70;;;;;;;15.54;100.00;95462.31;1050894;28;20039;-72
2023/09/18 02:09:12;;;;;;;9.32;6.70;;;;;;;15.59;100.00;95463.25;1047293;28;20829;-72
2023/09/18 02:09:43;;;;;;;10.63;6.80;;;;;;;15.60;100.00;95462.97;1042838;28;20037;-72
2023/09/18 02:10:13;;;;;;;9.50;6.93;;;;;;;15.63;100.00;95451.78;1042566;28;20052;-73
2023/09/18 02:10:44;;;;;;;9.57;6.53;;;;;;;15.66;100.00;95455.69;1042936;28;20025;-74
2023/09/18 02:11:14;;;;;;;8.20;6.18;;;;;;;15.69;100.00;95455.09;1043358;28;20363;-73
2023/09/18 02:11:46;;;;;;;9.48;6.75;;;;;;;15.69;100.00;95458.56;1042918;28;20059;-75
2023/09/18 02:12:17;;;;;;;9.00;6.70;;;;;;;15.71;100.00;95461.66;1038608;28;20120;-71
2023/09/18 02:12:48;;;;;;;9.02;6.93;;;;;;;15.74;100.00;95455.78;1034695;28;20493;-73
2023/09/18 02:13:18;;;;;;;8.32;6.60;;;;;;;15.74;100.00;95457.63;1032726;28;20034;-73
2023/09/18 02:13:49;;;;;;;8.98;7.15;;;;;;;15.77;100.00;95457.81;1038835;28;20408;-73
2023/09/18 02:14:19;;;;;;;8.75;6.53;;;;;;;15.79;100.00;95460.94;1038675;28;20523;-74
2023/09/18 02:14:50;;;;;;;10.15;7.57;;;;;;;15.76;100.00;95452.81;1038880;28;20033;-73
2023/09/18 02:15:20;;;;;;;8.60;6.57;;;;;;;15.76;100.00;95456.25;1039241;28;20034;-72
2023/09/18 02:15:51;;;;;;;8.93;6.78;;;;;;;15.83;100.00;95462.97;1045594;28;20041;-74
2023/09/18 02:16:22;;;;;;;7.50;6.30;;;;;;;15.83;100.00;95461.13;1038882;28;20221;-73
2023/09/18 02:16:53;;;;;;;9.63;6.88;;;;;;;15.85;100.00;95453.66;1030760;28;20522;-73
2023/09/18 02:17:24;;;;;;;8.45;6.65;;;;;;;15.85;100.00;95458.16;1034907;28;20029;-73
2023/09/18 02:17:54;;;;;;;8.23;6.45;;;;;;;15.84;100.00;95453.97;1035298;28;20493;-73
2023/09/18 02:18:25;;;;;;;9.95;6.10;;;;;;;15.84;100.00;95462.69;1038884;28;20037;-73
2023/09/18 02:18:56;;;;;;;9.85;6.47;;;;;;;15.80;100.00;95448.50;1038784;28;20036;-74
2023/09/18 02:19:30;;;;;;;8.80;6.55;;;;;;;15.86;100.00;95460.53;1034412;28;20441;-75
2023/09/18 02:20:04;;;;;;;9.48;6.47;;;;;;;15.87;100.00;95454.16;1033961;28;20068;-73
2023/09/18 02:20:47;;;;;;;8.43;6.10;;;;;;;15.88;100.00;95454.91;1030755;28;20038;-74
2023/09/18 02:21:21;;;;;;;8.48;6.55;;;;;;;15.90;100.00;95455.41;1028683;28;20085;-72
2023/09/18 02:21:51;;;;;;;9.85;6.55;;;;;;;15.88;100.00;95450.41;1028940;28;20473;-74
2023/09/18 02:22:22;;;;;;;7.07;6.18;;;;;;;15.86;100.00;95449.94;1034478;28;20025;-73
2023/09/18 02:22:52;;;;;;;9.85;6.90;;;;;;;15.89;100.00;95456.47;1038317;28;20717;-72
2023/09/18 02:23:23;;;;;;;11.15;6.25;;;;;;;15.91;100.00;95451.66;1038777;28;20045;-74
2023/09/18 02:23:54;;;;;;;7.22;6.05;;;;;;;15.89;100.00;95456.47;1031261;28;20042;-72
2023/09/18 02:24:25;;;;;;;8.82;6.18;;;;;;;15.91;100.00;95456.97;1040331;28;20094;-74
2023/09/18 02:24:55;;;;;;;8.93;6.60;;;;;;;15.90;100.00;95452.75;1043208;28;20029;-75
2023/09/18 02:25:26;;;;;;;8.98;6.07;;;;;;;15.87;100.00;95450.72;1037391;28;20026;-74
2023/09/18 02:25:57;;;;;;;8.95;6.32;;;;;;;15.89;100.00;95454.59;1034886;28;20097;-72